aviador You're here:

KORH Decoded Metar

WORCESTER in MA, USA
Report Time2017-05-26 12:54:00
UTC Time2017-05-26 13:08:52
Flight Rules ifr IFR
Wind340° at 08 kt
W.Decomp.*RWY 33: 7.3 kt HW 3.4 kt RCW
RWY 29: 3.4 kt HW 7.3 kt RCW
W.Rank340° ranks 21
Current wind is below 340° avg. (8.0)
Visibility3219 m
Phenomena:Light Rain
Mist
Clouds:Broken 006 Hf
Overcast 011 Hf
Expected CloudBase > 400 ft AGL from Temp-Dew spread
Ceiling600 ft
Temp08°C (ISA -5)
Dew Point07°C (93% RH)
AAT4.4°C
QNH1000 hPa
Density Alt978 ft
Elevation997 ft
Report Wrong Elevation
Raw Report
KORH 261254Z 34008KT 2SM -RA BR BKN006 OVC011 08/07 A2952 RMK AO2
SFC VIS 5 SLP999 P0003 T00830067=

Extra information for KORH:More info

Metar Taf Metar & Taf Last 4 Metars F.Rules Stats Wind Profile Meteogram Temp Stats Airport Information Weather charts Add Link Nearby VenuesMetar ALERT Operation Metar Decoded Social comments

AIRNAV info for KORH